This is the latest recevied weather packets stored in our database for station/object KQ4JKJ. If no packets are shown the sender has not sent any weather packets the latest 10 day(s).
| Time | Temp. | Humidity | Pressure | Rain* | Wind** | Luminosity | Snow |
|---|---|---|---|---|---|---|---|
| 1777574103 | 33.89° C | 49% | 1004.7 hPa | 0 mm | - | 771 W/m² | - |
| 1777573797 | 32.78° C | 51% | 1004.8 hPa | 0 mm | - | 777 W/m² | - |
| 1777573494 | 33.89° C | 50% | 1005.1 hPa | 0 mm | - | 168 W/m² | - |
| 1777573189 | 33.33° C | 50% | 1005.1 hPa | 0 mm | - | 947 W/m² | - |
| 1777572886 | 33.89° C | 49% | 1004.9 hPa | 0 mm | - | 711 W/m² | - |
| 1777572582 | 33.89° C | 49% | 1005 hPa | 0 mm | - | 592 W/m² | - |
| 1777572278 | 34.44° C | 48% | 1005.3 hPa | 0 mm | - | 724 W/m² | - |
| 1777571973 | 34.44° C | 48% | 1005.3 hPa | 0 mm | - | 796 W/m² | - |
| 1777571668 | 34.44° C | 48% | 1005.3 hPa | 0 mm | - | 799 W/m² | - |
| 1777571366 | 33.89° C | 49% | 1005.1 hPa | 0 mm | - | 864 W/m² | - |
| 1777571062 | 32.78° C | 54% | 1005.1 hPa | 0 mm | - | 941 W/m² | - |
| 1777570758 | 32.22° C | 56% | 1005.2 hPa | 0 mm | - | 891 W/m² | - |
| 1777570455 | 31.67° C | 56% | 1005.2 hPa | 0 mm | - | 453 W/m² | - |
| 1777570150 | 32.78° C | 54% | 1005.3 hPa | 0 mm | - | 403 W/m² | - |
| 1777569847 | 33.89° C | 52% | 1005.3 hPa | 0 mm | - | 681 W/m² | - |
| 1777569543 | 32.78° C | 56% | 1005.4 hPa | 0 mm | - | 944 W/m² | - |
| 1777569239 | 32.78° C | 57% | 1005.3 hPa | 0 mm | - | 705 W/m² | - |
| 1777568936 | 32.22° C | 58% | 1005.4 hPa | 0 mm | - | 822 W/m² | - |
| 1777568632 | 32.22° C | 60% | 1005.6 hPa | 0 mm | - | 784 W/m² | - |
| 1777568330 | 32.22° C | 60% | 1005.6 hPa | 0 mm | - | 783 W/m² | - |
| 1777568026 | 31.67° C | 60% | 1005.4 hPa | 0 mm | - | 769 W/m² | - |
| 1777567723 | 32.22° C | 61% | 1005.6 hPa | 0 mm | - | 772 W/m² | - |
| 1777567419 | 31.67° C | 62% | 1005.6 hPa | 0 mm | - | 777 W/m² | - |
| 1777567118 | 31.67° C | 60% | 1005.7 hPa | 0 mm | - | 785 W/m² | - |
| 1777566815 | 32.22° C | 60% | 1005.9 hPa | 0 mm | - | 688 W/m² | - |
* Rain latest hour (hover to see other rain measurements)
** Current wind speed in m/s (hover to see current wind gust speed)